sensor_id;sensor_type;location;lat;lon;timestamp;P1;durP1;ratioP1;P2;durP2;ratioP2
77117;SDS011;66072;50.238;19.228;2023-03-21T00:02:20;50.60;;;28.40;;
77117;SDS011;66072;50.238;19.228;2023-03-21T00:04:48;58.50;;;32.50;;
77117;SDS011;66072;50.238;19.228;2023-03-21T00:07:20;59.80;;;34.10;;
77117;SDS011;66072;50.238;19.228;2023-03-21T00:09:47;58.00;;;30.80;;
77117;SDS011;66072;50.238;19.228;2023-03-21T00:12:15;45.70;;;26.10;;
77117;SDS011;66072;50.238;19.228;2023-03-21T00:14:42;50.20;;;27.20;;
77117;SDS011;66072;50.238;19.228;2023-03-21T00:17:10;47.30;;;27.90;;
77117;SDS011;66072;50.238;19.228;2023-03-21T00:19:38;43.10;;;25.10;;
77117;SDS011;66072;50.238;19.228;2023-03-21T00:22:06;49.80;;;28.30;;
77117;SDS011;66072;50.238;19.228;2023-03-21T00:24:35;49.60;;;28.40;;
77117;SDS011;66072;50.238;19.228;2023-03-21T00:27:03;53.10;;;29.80;;
77117;SDS011;66072;50.238;19.228;2023-03-21T00:29:51;51.10;;;27.10;;
77117;SDS011;66072;50.238;19.228;2023-03-21T00:32:19;56.80;;;30.60;;
77117;SDS011;66072;50.238;19.228;2023-03-21T00:34:48;55.10;;;33.60;;
77117;SDS011;66072;50.238;19.228;2023-03-21T00:37:35;57.10;;;32.10;;
77117;SDS011;66072;50.238;19.228;2023-03-21T00:40:03;50.40;;;28.80;;
77117;SDS011;66072;50.238;19.228;2023-03-21T00:42:35;50.90;;;31.40;;
77117;SDS011;66072;50.238;19.228;2023-03-21T00:45:03;39.20;;;21.90;;
77117;SDS011;66072;50.238;19.228;2023-03-21T00:47:31;59.20;;;31.00;;
77117;SDS011;66072;50.238;19.228;2023-03-21T00:49:59;42.40;;;23.70;;
77117;SDS011;66072;50.238;19.228;2023-03-21T00:52:26;54.50;;;30.10;;
77117;SDS011;66072;50.238;19.228;2023-03-21T00:55:08;37.10;;;20.30;;
77117;SDS011;66072;50.238;19.228;2023-03-21T00:57:42;40.50;;;21.80;;
77117;SDS011;66072;50.238;19.228;2023-03-21T01:00:16;42.70;;;22.60;;
77117;SDS011;66072;50.238;19.228;2023-03-21T01:02:45;47.10;;;27.00;;
77117;SDS011;66072;50.238;19.228;2023-03-21T01:05:15;41.60;;;24.10;;
77117;SDS011;66072;50.238;19.228;2023-03-21T01:07:43;41.70;;;23.20;;
77117;SDS011;66072;50.238;19.228;2023-03-21T01:10:10;44.70;;;23.70;;
77117;SDS011;66072;50.238;19.228;2023-03-21T01:12:38;33.70;;;19.70;;
77117;SDS011;66072;50.238;19.228;2023-03-21T01:15:06;37.60;;;19.20;;
77117;SDS011;66072;50.238;19.228;2023-03-21T01:17:34;43.80;;;24.40;;
77117;SDS011;66072;50.238;19.228;2023-03-21T01:20:01;43.10;;;23.70;;
77117;SDS011;66072;50.238;19.228;2023-03-21T01:22:29;37.80;;;22.60;;
77117;SDS011;66072;50.238;19.228;2023-03-21T01:24:57;46.50;;;25.20;;
77117;SDS011;66072;50.238;19.228;2023-03-21T01:27:45;25.10;;;14.50;;
77117;SDS011;66072;50.238;19.228;2023-03-21T01:30:12;31.00;;;15.90;;
77117;SDS011;66072;50.238;19.228;2023-03-21T01:32:49;36.80;;;20.00;;
77117;SDS011;66072;50.238;19.228;2023-03-21T01:35:16;39.50;;;21.20;;
77117;SDS011;66072;50.238;19.228;2023-03-21T01:37:44;31.70;;;18.00;;
77117;SDS011;66072;50.238;19.228;2023-03-21T01:40:15;30.70;;;16.50;;
77117;SDS011;66072;50.238;19.228;2023-03-21T01:42:46;37.00;;;19.20;;
77117;SDS011;66072;50.238;19.228;2023-03-21T01:48:19;32.50;;;16.50;;
77117;SDS011;66072;50.238;19.228;2023-03-21T01:50:50;20.50;;;10.70;;
77117;SDS011;66072;50.238;19.228;2023-03-21T01:53:18;27.60;;;14.20;;
77117;SDS011;66072;50.238;19.228;2023-03-21T01:58:16;22.40;;;10.90;;
77117;SDS011;66072;50.238;19.228;2023-03-21T02:00:45;30.30;;;15.50;;
77117;SDS011;66072;50.238;19.228;2023-03-21T02:03:15;33.90;;;17.10;;
77117;SDS011;66072;50.238;19.228;2023-03-21T02:06:02;29.00;;;12.50;;
77117;SDS011;66072;50.238;19.228;2023-03-21T02:08:34;32.80;;;17.70;;
77117;SDS011;66072;50.238;19.228;2023-03-21T02:11:06;32.80;;;15.40;;
77117;SDS011;66072;50.238;19.228;2023-03-21T02:13:34;31.50;;;16.30;;
77117;SDS011;66072;50.238;19.228;2023-03-21T02:16:13;37.30;;;18.80;;
77117;SDS011;66072;50.238;19.228;2023-03-21T02:21:36;34.50;;;18.20;;
77117;SDS011;66072;50.238;19.228;2023-03-21T02:27:15;35.60;;;18.70;;
77117;SDS011;66072;50.238;19.228;2023-03-21T02:29:57;46.90;;;21.60;;
77117;SDS011;66072;50.238;19.228;2023-03-21T02:38:36;44.00;;;22.30;;
77117;SDS011;66072;50.238;19.228;2023-03-21T02:41:17;46.10;;;21.80;;
77117;SDS011;66072;50.238;19.228;2023-03-21T02:44:07;48.90;;;23.80;;
77117;SDS011;66072;50.238;19.228;2023-03-21T02:46:50;43.50;;;21.30;;
77117;SDS011;66072;50.238;19.228;2023-03-21T02:49:49;57.30;;;26.60;;
77117;SDS011;66072;50.238;19.228;2023-03-21T02:52:25;64.10;;;31.70;;
77117;SDS011;66072;50.238;19.228;2023-03-21T02:55:07;61.30;;;31.50;;
77117;SDS011;66072;50.238;19.228;2023-03-21T02:57:39;49.10;;;26.20;;
77117;SDS011;66072;50.238;19.228;2023-03-21T03:00:11;52.10;;;24.30;;
77117;SDS011;66072;50.238;19.228;2023-03-21T03:02:44;56.30;;;27.70;;
77117;SDS011;66072;50.238;19.228;2023-03-21T03:05:16;53.10;;;26.90;;
77117;SDS011;66072;50.238;19.228;2023-03-21T03:18:46;53.40;;;26.00;;
77117;SDS011;66072;50.238;19.228;2023-03-21T03:23:59;56.40;;;27.60;;
77117;SDS011;66072;50.238;19.228;2023-03-21T03:26:35;53.50;;;27.50;;
77117;SDS011;66072;50.238;19.228;2023-03-21T03:29:08;56.70;;;28.10;;
77117;SDS011;66072;50.238;19.228;2023-03-21T03:31:52;55.80;;;27.60;;
77117;SDS011;66072;50.238;19.228;2023-03-21T03:34:28;60.60;;;30.90;;
77117;SDS011;66072;50.238;19.228;2023-03-21T03:37:00;64.90;;;29.40;;
77117;SDS011;66072;50.238;19.228;2023-03-21T03:39:37;53.40;;;26.60;;
77117;SDS011;66072;50.238;19.228;2023-03-21T03:42:16;57.00;;;27.80;;
77117;SDS011;66072;50.238;19.228;2023-03-21T03:44:55;50.90;;;25.40;;
77117;SDS011;66072;50.238;19.228;2023-03-21T03:47:29;54.20;;;26.40;;
77117;SDS011;66072;50.238;19.228;2023-03-21T03:55:47;58.30;;;29.00;;
77117;SDS011;66072;50.238;19.228;2023-03-21T03:58:16;51.70;;;26.60;;
77117;SDS011;66072;50.238;19.228;2023-03-21T04:03:21;46.90;;;25.60;;
77117;SDS011;66072;50.238;19.228;2023-03-21T04:05:49;44.60;;;22.70;;
77117;SDS011;66072;50.238;19.228;2023-03-21T04:08:16;48.90;;;26.30;;
77117;SDS011;66072;50.238;19.228;2023-03-21T04:10:44;48.80;;;26.00;;
77117;SDS011;66072;50.238;19.228;2023-03-21T04:13:11;50.70;;;26.90;;
77117;SDS011;66072;50.238;19.228;2023-03-21T04:15:39;48.40;;;25.30;;
77117;SDS011;66072;50.238;19.228;2023-03-21T04:18:07;50.70;;;26.90;;
77117;SDS011;66072;50.238;19.228;2023-03-21T04:20:34;45.90;;;24.50;;
77117;SDS011;66072;50.238;19.228;2023-03-21T04:23:04;47.90;;;25.50;;
77117;SDS011;66072;50.238;19.228;2023-03-21T04:25:33;57.40;;;28.50;;
77117;SDS011;66072;50.238;19.228;2023-03-21T04:28:02;52.00;;;27.20;;
77117;SDS011;66072;50.238;19.228;2023-03-21T04:30:29;55.80;;;27.60;;
77117;SDS011;66072;50.238;19.228;2023-03-21T04:32:57;49.10;;;24.70;;
77117;SDS011;66072;50.238;19.228;2023-03-21T04:35:25;50.90;;;22.90;;
77117;SDS011;66072;50.238;19.228;2023-03-21T04:37:53;42.80;;;21.90;;
77117;SDS011;66072;50.238;19.228;2023-03-21T04:40:21;45.60;;;23.30;;
77117;SDS011;66072;50.238;19.228;2023-03-21T04:42:49;46.40;;;21.90;;
77117;SDS011;66072;50.238;19.228;2023-03-21T04:45:17;45.20;;;22.90;;
77117;SDS011;66072;50.238;19.228;2023-03-21T04:47:45;59.40;;;27.60;;
77117;SDS011;66072;50.238;19.228;2023-03-21T04:50:12;52.00;;;24.40;;
77117;SDS011;66072;50.238;19.228;2023-03-21T04:52:40;55.70;;;25.70;;
77117;SDS011;66072;50.238;19.228;2023-03-21T04:55:08;63.80;;;30.40;;
77117;SDS011;66072;50.238;19.228;2023-03-21T04:57:36;69.00;;;33.90;;
77117;SDS011;66072;50.238;19.228;2023-03-21T05:00:05;64.60;;;29.80;;
77117;SDS011;66072;50.238;19.228;2023-03-21T05:02:36;65.30;;;29.10;;
77117;SDS011;66072;50.238;19.228;2023-03-21T05:05:04;48.80;;;21.40;;
77117;SDS011;66072;50.238;19.228;2023-03-21T05:07:33;50.60;;;25.10;;
77117;SDS011;66072;50.238;19.228;2023-03-21T05:10:00;53.20;;;24.30;;
77117;SDS011;66072;50.238;19.228;2023-03-21T05:12:29;51.40;;;24.50;;
77117;SDS011;66072;50.238;19.228;2023-03-21T05:14:56;46.80;;;23.00;;
77117;SDS011;66072;50.238;19.228;2023-03-21T05:17:24;44.50;;;21.80;;
77117;SDS011;66072;50.238;19.228;2023-03-21T05:19:52;45.80;;;23.90;;
77117;SDS011;66072;50.238;19.228;2023-03-21T05:22:19;48.80;;;23.90;;
77117;SDS011;66072;50.238;19.228;2023-03-21T05:24:47;47.10;;;24.10;;
77117;SDS011;66072;50.238;19.228;2023-03-21T05:27:15;43.40;;;20.20;;
77117;SDS011;66072;50.238;19.228;2023-03-21T05:29:44;43.40;;;20.90;;
77117;SDS011;66072;50.238;19.228;2023-03-21T05:32:11;46.90;;;22.20;;
77117;SDS011;66072;50.238;19.228;2023-03-21T05:34:39;42.80;;;23.40;;
77117;SDS011;66072;50.238;19.228;2023-03-21T05:37:06;50.40;;;23.90;;
77117;SDS011;66072;50.238;19.228;2023-03-21T05:39:34;44.80;;;21.80;;
77117;SDS011;66072;50.238;19.228;2023-03-21T05:42:02;53.80;;;24.30;;
77117;SDS011;66072;50.238;19.228;2023-03-21T05:44:29;45.60;;;23.00;;
77117;SDS011;66072;50.238;19.228;2023-03-21T05:46:57;44.00;;;22.40;;
77117;SDS011;66072;50.238;19.228;2023-03-21T05:49:24;51.00;;;26.30;;
77117;SDS011;66072;50.238;19.228;2023-03-21T05:51:52;39.10;;;18.90;;
77117;SDS011;66072;50.238;19.228;2023-03-21T05:54:19;44.10;;;22.10;;
77117;SDS011;66072;50.238;19.228;2023-03-21T05:56:47;32.80;;;15.70;;
77117;SDS011;66072;50.238;19.228;2023-03-21T05:59:15;48.40;;;23.50;;
77117;SDS011;66072;50.238;19.228;2023-03-21T06:01:42;41.70;;;19.90;;
77117;SDS011;66072;50.238;19.228;2023-03-21T06:04:10;33.60;;;16.30;;
77117;SDS011;66072;50.238;19.228;2023-03-21T06:06:38;25.50;;;13.80;;
77117;SDS011;66072;50.238;19.228;2023-03-21T06:09:05;51.10;;;23.70;;
77117;SDS011;66072;50.238;19.228;2023-03-21T06:11:34;42.50;;;21.80;;
77117;SDS011;66072;50.238;19.228;2023-03-21T06:16:30;41.80;;;20.00;;
77117;SDS011;66072;50.238;19.228;2023-03-21T06:18:58;40.70;;;19.70;;
77117;SDS011;66072;50.238;19.228;2023-03-21T06:21:25;43.00;;;21.50;;
77117;SDS011;66072;50.238;19.228;2023-03-21T06:23:53;45.90;;;22.50;;
77117;SDS011;66072;50.238;19.228;2023-03-21T06:26:21;41.80;;;19.70;;
77117;SDS011;66072;50.238;19.228;2023-03-21T06:28:49;50.90;;;25.10;;
77117;SDS011;66072;50.238;19.228;2023-03-21T06:31:17;44.20;;;22.40;;
77117;SDS011;66072;50.238;19.228;2023-03-21T06:33:45;45.60;;;22.10;;
77117;SDS011;66072;50.238;19.228;2023-03-21T06:36:13;31.50;;;15.60;;
77117;SDS011;66072;50.238;19.228;2023-03-21T06:38:40;34.70;;;17.50;;
77117;SDS011;66072;50.238;19.228;2023-03-21T06:41:08;36.50;;;19.40;;
77117;SDS011;66072;50.238;19.228;2023-03-21T06:43:36;43.60;;;19.80;;
77117;SDS011;66072;50.238;19.228;2023-03-21T06:46:04;39.20;;;19.80;;
77117;SDS011;66072;50.238;19.228;2023-03-21T06:48:32;28.50;;;14.00;;
77117;SDS011;66072;50.238;19.228;2023-03-21T06:50:59;30.70;;;15.00;;
77117;SDS011;66072;50.238;19.228;2023-03-21T06:53:27;37.20;;;19.70;;
77117;SDS011;66072;50.238;19.228;2023-03-21T06:55:55;28.00;;;14.00;;
77117;SDS011;66072;50.238;19.228;2023-03-21T06:58:23;31.20;;;17.30;;
77117;SDS011;66072;50.238;19.228;2023-03-21T07:00:51;35.50;;;18.30;;
77117;SDS011;66072;50.238;19.228;2023-03-21T07:03:18;29.90;;;14.50;;
77117;SDS011;66072;50.238;19.228;2023-03-21T07:05:46;32.60;;;16.60;;
77117;SDS011;66072;50.238;19.228;2023-03-21T07:08:14;31.20;;;17.10;;
77117;SDS011;66072;50.238;19.228;2023-03-21T07:10:42;24.90;;;11.30;;
77117;SDS011;66072;50.238;19.228;2023-03-21T07:13:11;28.70;;;12.40;;
77117;SDS011;66072;50.238;19.228;2023-03-21T07:15:40;22.40;;;11.50;;
77117;SDS011;66072;50.238;19.228;2023-03-21T07:18:08;25.10;;;13.10;;
77117;SDS011;66072;50.238;19.228;2023-03-21T07:20:36;26.50;;;14.70;;
77117;SDS011;66072;50.238;19.228;2023-03-21T07:23:03;40.00;;;20.10;;
77117;SDS011;66072;50.238;19.228;2023-03-21T07:25:31;39.80;;;19.80;;
77117;SDS011;66072;50.238;19.228;2023-03-21T07:27:59;33.90;;;17.20;;
77117;SDS011;66072;50.238;19.228;2023-03-21T07:30:27;35.90;;;18.70;;
77117;SDS011;66072;50.238;19.228;2023-03-21T07:32:55;40.70;;;20.50;;
77117;SDS011;66072;50.238;19.228;2023-03-21T07:35:22;36.30;;;17.40;;
77117;SDS011;66072;50.238;19.228;2023-03-21T07:37:50;30.50;;;14.40;;
77117;SDS011;66072;50.238;19.228;2023-03-21T07:40:17;36.20;;;18.90;;
77117;SDS011;66072;50.238;19.228;2023-03-21T07:42:47;31.70;;;16.30;;
77117;SDS011;66072;50.238;19.228;2023-03-21T07:45:15;44.10;;;23.10;;
77117;SDS011;66072;50.238;19.228;2023-03-21T07:47:47;27.30;;;14.20;;
77117;SDS011;66072;50.238;19.228;2023-03-21T07:50:15;40.60;;;20.50;;
77117;SDS011;66072;50.238;19.228;2023-03-21T07:52:43;34.90;;;19.90;;
77117;SDS011;66072;50.238;19.228;2023-03-21T07:55:11;47.10;;;23.60;;
77117;SDS011;66072;50.238;19.228;2023-03-21T07:57:39;50.10;;;25.60;;
77117;SDS011;66072;50.238;19.228;2023-03-21T08:00:07;35.20;;;17.60;;
77117;SDS011;66072;50.238;19.228;2023-03-21T08:02:35;42.30;;;20.80;;
77117;SDS011;66072;50.238;19.228;2023-03-21T08:05:03;50.60;;;24.50;;
77117;SDS011;66072;50.238;19.228;2023-03-21T08:07:31;45.10;;;20.90;;
77117;SDS011;66072;50.238;19.228;2023-03-21T08:09:58;43.30;;;24.50;;
77117;SDS011;66072;50.238;19.228;2023-03-21T08:12:26;50.00;;;26.30;;
77117;SDS011;66072;50.238;19.228;2023-03-21T08:14:54;45.20;;;23.70;;
77117;SDS011;66072;50.238;19.228;2023-03-21T08:17:21;41.70;;;21.50;;
77117;SDS011;66072;50.238;19.228;2023-03-21T08:19:49;38.90;;;18.30;;
77117;SDS011;66072;50.238;19.228;2023-03-21T08:22:16;46.50;;;23.00;;
77117;SDS011;66072;50.238;19.228;2023-03-21T08:24:44;45.20;;;23.70;;
77117;SDS011;66072;50.238;19.228;2023-03-21T08:27:11;36.20;;;17.90;;
77117;SDS011;66072;50.238;19.228;2023-03-21T08:29:39;32.90;;;16.30;;
77117;SDS011;66072;50.238;19.228;2023-03-21T08:32:07;42.90;;;21.80;;
77117;SDS011;66072;50.238;19.228;2023-03-21T08:34:35;43.70;;;23.50;;
77117;SDS011;66072;50.238;19.228;2023-03-21T08:37:02;41.00;;;22.40;;
77117;SDS011;66072;50.238;19.228;2023-03-21T08:39:30;32.40;;;18.30;;
77117;SDS011;66072;50.238;19.228;2023-03-21T08:41:58;38.10;;;19.10;;
77117;SDS011;66072;50.238;19.228;2023-03-21T08:44:25;40.30;;;21.40;;
77117;SDS011;66072;50.238;19.228;2023-03-21T08:46:53;39.10;;;21.10;;
77117;SDS011;66072;50.238;19.228;2023-03-21T08:49:20;28.50;;;15.70;;
77117;SDS011;66072;50.238;19.228;2023-03-21T08:51:48;44.90;;;24.20;;
77117;SDS011;66072;50.238;19.228;2023-03-21T08:54:20;40.60;;;22.40;;
77117;SDS011;66072;50.238;19.228;2023-03-21T08:56:48;48.30;;;26.20;;
77117;SDS011;66072;50.238;19.228;2023-03-21T08:59:16;31.40;;;16.70;;
77117;SDS011;66072;50.238;19.228;2023-03-21T09:01:43;48.90;;;25.40;;
77117;SDS011;66072;50.238;19.228;2023-03-21T09:04:11;41.80;;;20.60;;
77117;SDS011;66072;50.238;19.228;2023-03-21T09:06:39;28.90;;;15.80;;
77117;SDS011;66072;50.238;19.228;2023-03-21T09:09:07;37.00;;;21.70;;
77117;SDS011;66072;50.238;19.228;2023-03-21T09:11:34;38.00;;;20.70;;
77117;SDS011;66072;50.238;19.228;2023-03-21T09:14:02;37.10;;;19.70;;
77117;SDS011;66072;50.238;19.228;2023-03-21T09:16:30;41.60;;;22.80;;
77117;SDS011;66072;50.238;19.228;2023-03-21T09:18:58;33.60;;;18.60;;
77117;SDS011;66072;50.238;19.228;2023-03-21T09:21:27;35.80;;;19.70;;
77117;SDS011;66072;50.238;19.228;2023-03-21T09:23:55;34.60;;;18.20;;
77117;SDS011;66072;50.238;19.228;2023-03-21T09:26:24;37.70;;;19.30;;
77117;SDS011;66072;50.238;19.228;2023-03-21T09:28:53;36.20;;;19.00;;
77117;SDS011;66072;50.238;19.228;2023-03-21T09:31:21;41.80;;;17.20;;
77117;SDS011;66072;50.238;19.228;2023-03-21T09:33:50;29.70;;;17.00;;
77117;SDS011;66072;50.238;19.228;2023-03-21T09:36:19;34.20;;;17.70;;
77117;SDS011;66072;50.238;19.228;2023-03-21T09:38:47;34.40;;;18.80;;
77117;SDS011;66072;50.238;19.228;2023-03-21T09:51:45;34.30;;;17.60;;
77117;SDS011;66072;50.238;19.228;2023-03-21T09:54:25;25.10;;;13.50;;
77117;SDS011;66072;50.238;19.228;2023-03-21T09:57:00;24.70;;;14.40;;
77117;SDS011;66072;50.238;19.228;2023-03-21T09:59:37;27.70;;;15.40;;
77117;SDS011;66072;50.238;19.228;2023-03-21T10:05:09;33.40;;;18.00;;
77117;SDS011;66072;50.238;19.228;2023-03-21T10:07:42;42.80;;;23.70;;
77117;SDS011;66072;50.238;19.228;2023-03-21T10:10:14;43.20;;;21.70;;
77117;SDS011;66072;50.238;19.228;2023-03-21T10:12:45;38.80;;;21.10;;
77117;SDS011;66072;50.238;19.228;2023-03-21T10:15:17;39.70;;;21.50;;
77117;SDS011;66072;50.238;19.228;2023-03-21T10:20:31;37.40;;;20.30;;
77117;SDS011;66072;50.238;19.228;2023-03-21T10:23:06;29.20;;;15.40;;
77117;SDS011;66072;50.238;19.228;2023-03-21T10:25:43;37.00;;;20.20;;
77117;SDS011;66072;50.238;19.228;2023-03-21T10:28:16;29.60;;;16.30;;
77117;SDS011;66072;50.238;19.228;2023-03-21T10:30:51;28.10;;;15.10;;
77117;SDS011;66072;50.238;19.228;2023-03-21T10:33:25;29.30;;;15.30;;
77117;SDS011;66072;50.238;19.228;2023-03-21T10:35:59;24.90;;;12.30;;
77117;SDS011;66072;50.238;19.228;2023-03-21T10:38:31;33.90;;;18.90;;
77117;SDS011;66072;50.238;19.228;2023-03-21T10:41:00;29.50;;;17.00;;
77117;SDS011;66072;50.238;19.228;2023-03-21T10:45:55;25.10;;;14.40;;
77117;SDS011;66072;50.238;19.228;2023-03-21T10:48:23;30.20;;;16.70;;
77117;SDS011;66072;50.238;19.228;2023-03-21T10:50:52;25.40;;;14.10;;
77117;SDS011;66072;50.238;19.228;2023-03-21T10:55:55;26.40;;;14.40;;
77117;SDS011;66072;50.238;19.228;2023-03-21T10:58:29;29.50;;;16.10;;
77117;SDS011;66072;50.238;19.228;2023-03-21T11:01:02;30.50;;;16.80;;
77117;SDS011;66072;50.238;19.228;2023-03-21T11:03:35;31.10;;;18.30;;
77117;SDS011;66072;50.238;19.228;2023-03-21T11:06:16;24.10;;;13.10;;
77117;SDS011;66072;50.238;19.228;2023-03-21T11:09:00;33.80;;;17.30;;
77117;SDS011;66072;50.238;19.228;2023-03-21T11:11:38;30.80;;;18.60;;
77117;SDS011;66072;50.238;19.228;2023-03-21T11:14:22;25.30;;;14.60;;
77117;SDS011;66072;50.238;19.228;2023-03-21T11:16:52;29.80;;;16.70;;
77117;SDS011;66072;50.238;19.228;2023-03-21T11:19:32;24.00;;;12.70;;
77117;SDS011;66072;50.238;19.228;2023-03-21T11:22:05;29.30;;;17.40;;
77117;SDS011;66072;50.238;19.228;2023-03-21T11:24:34;28.90;;;15.30;;
77117;SDS011;66072;50.238;19.228;2023-03-21T11:27:05;22.60;;;11.80;;
77117;SDS011;66072;50.238;19.228;2023-03-21T11:29:35;18.80;;;11.30;;
77117;SDS011;66072;50.238;19.228;2023-03-21T11:32:08;25.70;;;13.50;;
77117;SDS011;66072;50.238;19.228;2023-03-21T11:37:19;34.10;;;17.00;;
77117;SDS011;66072;50.238;19.228;2023-03-21T11:43:03;24.90;;;13.80;;
77117;SDS011;66072;50.238;19.228;2023-03-21T11:45:32;25.90;;;14.30;;
77117;SDS011;66072;50.238;19.228;2023-03-21T11:48:04;22.20;;;12.40;;
77117;SDS011;66072;50.238;19.228;2023-03-21T11:50:40;23.10;;;12.10;;
77117;SDS011;66072;50.238;19.228;2023-03-21T12:18:36;28.10;;;16.20;;
77117;SDS011;66072;50.238;19.228;2023-03-21T12:21:14;23.90;;;13.50;;
77117;SDS011;66072;50.238;19.228;2023-03-21T12:37:04;23.70;;;13.10;;
77117;SDS011;66072;50.238;19.228;2023-03-21T12:39:36;33.70;;;17.00;;
77117;SDS011;66072;50.238;19.228;2023-03-21T12:44:55;26.00;;;14.20;;
77117;SDS011;66072;50.238;19.228;2023-03-21T12:47:37;29.10;;;15.30;;
77117;SDS011;66072;50.238;19.228;2023-03-21T12:50:25;22.60;;;12.30;;
77117;SDS011;66072;50.238;19.228;2023-03-21T12:52:58;21.90;;;13.00;;
77117;SDS011;66072;50.238;19.228;2023-03-21T12:55:32;28.00;;;15.20;;
77117;SDS011;66072;50.238;19.228;2023-03-21T12:58:03;19.20;;;11.40;;
77117;SDS011;66072;50.238;19.228;2023-03-21T13:00:34;27.90;;;15.00;;
77117;SDS011;66072;50.238;19.228;2023-03-21T13:03:13;21.50;;;11.60;;
77117;SDS011;66072;50.238;19.228;2023-03-21T13:05:51;25.90;;;14.10;;
77117;SDS011;66072;50.238;19.228;2023-03-21T13:08:36;21.30;;;12.40;;
77117;SDS011;66072;50.238;19.228;2023-03-21T13:11:28;21.90;;;11.10;;
77117;SDS011;66072;50.238;19.228;2023-03-21T13:16:40;28.40;;;16.50;;
77117;SDS011;66072;50.238;19.228;2023-03-21T13:19:27;27.00;;;16.30;;
77117;SDS011;66072;50.238;19.228;2023-03-21T13:22:09;27.00;;;16.80;;
77117;SDS011;66072;50.238;19.228;2023-03-21T13:24:49;30.00;;;17.40;;
77117;SDS011;66072;50.238;19.228;2023-03-21T13:27:41;23.30;;;12.50;;
77117;SDS011;66072;50.238;19.228;2023-03-21T13:30:20;21.40;;;12.50;;
77117;SDS011;66072;50.238;19.228;2023-03-21T13:33:12;25.50;;;13.70;;
77117;SDS011;66072;50.238;19.228;2023-03-21T13:35:43;24.00;;;14.70;;
77117;SDS011;66072;50.238;19.228;2023-03-21T13:38:16;26.20;;;14.90;;
77117;SDS011;66072;50.238;19.228;2023-03-21T13:40:50;25.00;;;14.10;;
77117;SDS011;66072;50.238;19.228;2023-03-21T13:48:42;19.20;;;11.00;;
77117;SDS011;66072;50.238;19.228;2023-03-21T13:54:02;17.30;;;9.90;;
77117;SDS011;66072;50.238;19.228;2023-03-21T14:04:59;31.20;;;16.70;;
77117;SDS011;66072;50.238;19.228;2023-03-21T14:07:35;36.30;;;21.10;;
77117;SDS011;66072;50.238;19.228;2023-03-21T14:10:12;36.40;;;21.70;;
77117;SDS011;66072;50.238;19.228;2023-03-21T14:12:46;34.70;;;20.20;;
77117;SDS011;66072;50.238;19.228;2023-03-21T14:15:19;35.90;;;20.50;;
77117;SDS011;66072;50.238;19.228;2023-03-21T14:17:56;18.40;;;10.00;;
77117;SDS011;66072;50.238;19.228;2023-03-21T14:20:30;39.90;;;21.00;;
77117;SDS011;66072;50.238;19.228;2023-03-21T14:23:02;30.40;;;17.10;;
77117;SDS011;66072;50.238;19.228;2023-03-21T14:25:33;41.00;;;23.20;;
77117;SDS011;66072;50.238;19.228;2023-03-21T14:30:43;34.00;;;20.80;;
77117;SDS011;66072;50.238;19.228;2023-03-21T14:33:21;26.90;;;17.00;;
77117;SDS011;66072;50.238;19.228;2023-03-21T14:35:59;36.00;;;19.90;;
77117;SDS011;66072;50.238;19.228;2023-03-21T14:38:32;30.10;;;16.10;;
77117;SDS011;66072;50.238;19.228;2023-03-21T14:41:02;28.70;;;14.60;;
77117;SDS011;66072;50.238;19.228;2023-03-21T14:43:31;37.10;;;21.90;;
77117;SDS011;66072;50.238;19.228;2023-03-21T14:45:59;35.10;;;19.60;;
77117;SDS011;66072;50.238;19.228;2023-03-21T14:48:31;33.30;;;18.40;;
77117;SDS011;66072;50.238;19.228;2023-03-21T14:51:01;36.90;;;19.70;;
77117;SDS011;66072;50.238;19.228;2023-03-21T14:53:32;28.70;;;16.10;;
77117;SDS011;66072;50.238;19.228;2023-03-21T14:58:48;37.80;;;19.70;;
77117;SDS011;66072;50.238;19.228;2023-03-21T15:01:19;36.10;;;18.70;;
77117;SDS011;66072;50.238;19.228;2023-03-21T15:03:54;25.80;;;13.90;;
77117;SDS011;66072;50.238;19.228;2023-03-21T15:06:21;35.30;;;19.00;;
77117;SDS011;66072;50.238;19.228;2023-03-21T15:09:00;35.50;;;17.90;;
77117;SDS011;66072;50.238;19.228;2023-03-21T15:11:34;31.00;;;17.20;;
77117;SDS011;66072;50.238;19.228;2023-03-21T15:14:05;36.20;;;19.70;;
77117;SDS011;66072;50.238;19.228;2023-03-21T15:16:34;32.10;;;17.10;;
77117;SDS011;66072;50.238;19.228;2023-03-21T15:19:03;27.00;;;14.80;;
77117;SDS011;66072;50.238;19.228;2023-03-21T15:21:34;33.20;;;18.20;;
77117;SDS011;66072;50.238;19.228;2023-03-21T15:24:09;34.60;;;18.00;;
77117;SDS011;66072;50.238;19.228;2023-03-21T15:26:47;30.10;;;16.30;;
77117;SDS011;66072;50.238;19.228;2023-03-21T15:29:16;28.60;;;16.50;;
77117;SDS011;66072;50.238;19.228;2023-03-21T15:31:45;30.00;;;16.90;;
77117;SDS011;66072;50.238;19.228;2023-03-21T15:34:21;23.40;;;14.50;;
77117;SDS011;66072;50.238;19.228;2023-03-21T15:36:54;22.50;;;14.20;;
77117;SDS011;66072;50.238;19.228;2023-03-21T15:39:27;24.90;;;14.20;;
77117;SDS011;66072;50.238;19.228;2023-03-21T15:41:57;20.40;;;12.10;;
77117;SDS011;66072;50.238;19.228;2023-03-21T15:44:25;23.70;;;12.80;;
77117;SDS011;66072;50.238;19.228;2023-03-21T15:46:54;25.40;;;14.40;;
77117;SDS011;66072;50.238;19.228;2023-03-21T15:49:29;23.90;;;14.80;;
77117;SDS011;66072;50.238;19.228;2023-03-21T15:52:13;26.60;;;14.80;;
77117;SDS011;66072;50.238;19.228;2023-03-21T15:54:43;23.80;;;14.00;;
77117;SDS011;66072;50.238;19.228;2023-03-21T15:57:18;24.40;;;13.90;;
77117;SDS011;66072;50.238;19.228;2023-03-21T15:59:53;24.80;;;14.40;;
77117;SDS011;66072;50.238;19.228;2023-03-21T16:02:23;24.80;;;14.00;;
77117;SDS011;66072;50.238;19.228;2023-03-21T16:04:56;20.30;;;13.40;;
77117;SDS011;66072;50.238;19.228;2023-03-21T16:07:26;22.90;;;13.20;;
77117;SDS011;66072;50.238;19.228;2023-03-21T16:09:59;23.40;;;15.00;;
77117;SDS011;66072;50.238;19.228;2023-03-21T16:12:28;24.30;;;13.80;;
77117;SDS011;66072;50.238;19.228;2023-03-21T16:14:56;24.40;;;13.50;;
77117;SDS011;66072;50.238;19.228;2023-03-21T16:17:33;31.90;;;17.20;;
77117;SDS011;66072;50.238;19.228;2023-03-21T16:21:03;50.70;;;28.00;;
77117;SDS011;66072;50.238;19.228;2023-03-21T16:23:05;41.50;;;23.30;;
77117;SDS011;66072;50.238;19.228;2023-03-21T16:25:35;34.40;;;21.90;;
77117;SDS011;66072;50.238;19.228;2023-03-21T16:28:03;38.20;;;21.30;;
77117;SDS011;66072;50.238;19.228;2023-03-21T16:30:31;36.30;;;21.10;;
77117;SDS011;66072;50.238;19.228;2023-03-21T16:32:58;50.10;;;29.90;;
77117;SDS011;66072;50.238;19.228;2023-03-21T16:35:26;51.90;;;31.60;;
77117;SDS011;66072;50.238;19.228;2023-03-21T16:37:54;49.10;;;26.90;;
77117;SDS011;66072;50.238;19.228;2023-03-21T16:40:26;40.40;;;23.00;;
77117;SDS011;66072;50.238;19.228;2023-03-21T16:42:57;38.20;;;22.70;;
77117;SDS011;66072;50.238;19.228;2023-03-21T16:45:25;34.90;;;20.50;;
77117;SDS011;66072;50.238;19.228;2023-03-21T16:47:53;39.30;;;21.80;;